Time;durP1;ratioP1;P1;durP2;ratioP2;P2;SDS_P1;SDS_P2;PMS_P1;PMS_P2;Temp;Humidity;BMP_temperature;BMP_pressure;BME280_temperature;BME280_humidity;BME280_pressure;Samples;Min_cycle;Max_cycle;Signal;HPM_P1;HPM_P2
2023/08/30 00:00:56;;;;;;;;;;;15.30;70.30;;;10.72;100.00;95023.25;5011141;28;20013;-48
2023/08/30 00:03:22;;;;;;;;;;;15.30;70.30;;;10.72;100.00;95020.59;5011483;28;19909;-51
2023/08/30 00:05:48;;;;;;;;;;;15.30;70.30;;;10.74;100.00;95018.41;5011428;28;19928;-47
2023/08/30 00:08:18;;;;;;;;;;;15.30;70.30;;;10.74;100.00;95023.75;5017778;28;20251;-47
2023/08/30 00:10:45;;;;;;;;;;;15.30;70.30;;;10.74;100.00;95018.41;5011498;28;20012;-47
2023/08/30 00:13:10;;;;;;;;;;;15.30;70.30;;;10.75;100.00;95020.03;5011919;28;19996;-48
2023/08/30 00:15:36;;;;;;;;;;;15.30;70.30;;;10.75;100.00;95024.53;5012214;28;20024;-47
2023/08/30 00:18:02;;;;;;;;;;;15.30;70.30;;;10.74;100.00;95028.28;5011367;28;19998;-47
2023/08/30 00:20:28;;;;;;;;;;;15.40;70.30;;;10.75;100.00;95024.53;5012025;28;20429;-47
2023/08/30 00:22:54;;;;;;;;;;;15.40;70.30;;;10.76;100.00;95028.81;5010960;28;19909;-47
2023/08/30 00:25:20;;;;;;;;;;;15.30;70.20;;;10.74;100.00;95025.63;5011925;28;19913;-47
2023/08/30 00:27:45;;;;;;;;;;;15.40;70.30;;;10.74;100.00;95029.06;5011586;28;19937;-47
2023/08/30 00:30:12;;;;;;;;;;;15.30;70.20;;;10.76;100.00;95020.81;5015763;28;20356;-47
2023/08/30 00:32:37;;;;;;;;;;;15.40;70.30;;;10.74;100.00;95014.97;5012193;28;19909;-51
2023/08/30 00:35:04;;;;;;;;;;;15.30;70.20;;;10.75;100.00;95011.22;5014274;28;19909;-48
2023/08/30 00:37:29;;;;;;;;;;;15.40;70.20;;;10.73;100.00;95018.72;5020838;28;20017;-48
2023/08/30 00:39:55;;;;;;;;;;;15.40;70.20;;;10.74;100.00;95014.97;5016092;28;20522;-46
2023/08/30 00:42:21;;;;;;;;;;;15.30;70.10;;;10.71;100.00;95016.31;5014790;28;20012;-47
2023/08/30 00:44:46;;;;;;;;;;;15.40;70.20;;;10.71;100.00;95015.53;5015526;28;19908;-49
2023/08/30 00:47:12;;;;;;;;;;;15.40;70.20;;;10.72;100.00;95012.59;5017896;28;20299;-48
2023/08/30 00:49:40;;;;;;;;;;;15.30;70.10;;;10.70;100.00;95008.63;5015537;28;20014;-47
2023/08/30 00:52:09;;;;;;;;;;;15.30;70.20;;;10.69;100.00;95013.16;5016135;28;19909;-46
2023/08/30 00:54:36;;;;;;;;;;;15.40;70.20;;;10.69;100.00;95005.16;4997179;28;19924;-47
2023/08/30 00:57:04;;;;;;;;;;;15.30;71.00;;;10.70;100.00;95006.75;4998055;28;20398;-47
2023/08/30 00:59:33;;;;;;;;;;;15.40;70.30;;;10.68;100.00;95002.75;5003498;28;19933;-47
2023/08/30 01:02:03;;;;;;;;;;;15.30;70.20;;;10.70;100.00;95001.41;5019112;28;19951;-47
2023/08/30 01:04:29;;;;;;;;;;;15.30;70.20;;;10.71;100.00;94997.66;5015461;28;19912;-46
2023/08/30 01:06:55;;;;;;;;;;;15.30;70.20;;;10.70;100.00;94992.63;5019842;28;19924;-47
2023/08/30 01:09:22;;;;;;;;;;;15.30;70.20;;;10.70;100.00;94989.97;5015398;28;19916;-48
2023/08/30 01:12:34;;;;;;;;;;;15.30;70.20;;;10.68;100.00;94986.78;5014631;28;19909;-48
2023/08/30 01:15:14;;;;;;;;;;;15.30;70.20;;;10.68;100.00;94978.78;5009743;28;19923;-53
2023/08/30 01:17:45;;;;;;;;;;;15.30;70.30;;;10.68;100.00;94982.25;5000767;28;20398;-47
2023/08/30 01:20:18;;;;;;;;;;;15.30;70.30;;;10.68;100.00;94984.91;4997959;28;19952;-47
2023/08/30 01:23:10;;;;;;;;;;;15.30;70.40;;;10.65;100.00;94978.28;5014303;28;19909;-50
2023/08/30 01:25:53;;;;;;;;;;;15.20;70.40;;;10.65;100.00;94983.63;5015222;28;19940;-49
2023/08/30 01:28:24;;;;;;;;;;;15.30;70.40;;;10.64;100.00;94973.22;5014805;28;19974;-48
2023/08/30 01:30:57;;;;;;;;;;;15.20;70.40;;;10.61;100.00;94981.78;5002239;28;19909;-47
2023/08/30 01:33:27;;;;;;;;;;;15.30;70.50;;;10.66;100.00;94981.75;4997888;28;19998;-48
2023/08/30 01:35:59;;;;;;;;;;;15.20;70.50;;;10.64;100.00;94978.56;5012899;28;20331;-47
2023/08/30 01:38:28;;;;;;;;;;;15.30;70.60;;;10.66;100.00;94976.41;5014604;28;19909;-48
2023/08/30 01:40:56;;;;;;;;;;;15.20;70.60;;;10.65;100.00;94977.47;5013925;28;19958;-47
2023/08/30 01:43:28;;;;;;;;;;;15.20;70.60;;;10.66;100.00;94976.41;5014644;28;19956;-47
2023/08/30 01:45:59;;;;;;;;;;;15.20;70.60;;;10.63;100.00;94967.09;4997943;28;20420;-46
2023/08/30 01:48:28;;;;;;;;;;;15.30;70.60;;;10.66;100.00;94973.75;5012982;28;19944;-47
2023/08/30 01:50:58;;;;;;;;;;;15.20;70.60;;;10.67;100.00;94978.00;4997101;28;19916;-49
2023/08/30 01:53:26;;;;;;;;;;;15.20;70.60;;;10.68;100.00;94974.25;4996193;28;20264;-46
2023/08/30 01:55:52;;;;;;;;;;;15.20;70.60;;;10.67;100.00;94974.53;4997125;28;20003;-47
2023/08/30 01:58:19;;;;;;;;;;;15.20;70.60;;;10.64;100.00;94974.00;5014301;28;20051;-47
2023/08/30 02:00:45;;;;;;;;;;;15.20;70.60;;;10.62;100.00;94970.84;5013194;28;19975;-47
2023/08/30 02:03:13;;;;;;;;;;;15.20;70.60;;;10.68;100.00;94971.59;5013930;28;19952;-47
2023/08/30 02:06:26;;;;;;;;;;;15.30;70.70;;;10.62;100.00;94967.38;5013608;28;19963;-47
2023/08/30 02:09:04;;;;;;;;;;;15.20;70.70;;;10.58;100.00;94966.34;4993733;28;19916;-47
2023/08/30 02:11:34;;;;;;;;;;;15.20;70.70;;;10.66;100.00;94965.75;5013534;28;19909;-47
2023/08/30 02:14:04;;;;;;;;;;;15.20;70.70;;;10.61;100.00;94969.25;4996790;28;20003;-46
2023/08/30 02:16:33;;;;;;;;;;;15.20;70.70;;;10.64;100.00;94966.03;4997220;28;19909;-47
2023/08/30 02:18:58;;;;;;;;;;;15.20;70.80;;;10.62;100.00;94968.19;4995850;28;20272;-47
2023/08/30 02:21:26;;;;;;;;;;;15.20;70.80;;;10.68;100.00;94952.94;4995937;28;19921;-50
2023/08/30 02:23:52;;;;;;;;;;;15.20;70.80;;;10.64;100.00;94962.56;4995846;28;19913;-47
2023/08/30 02:26:21;;;;;;;;;;;15.20;70.90;;;10.67;100.00;94954.03;5013898;28;20209;-47
2023/08/30 02:28:47;;;;;;;;;;;15.20;70.80;;;10.67;100.00;94958.56;5013438;28;19956;-48
2023/08/30 02:31:12;;;;;;;;;;;15.20;70.80;;;10.69;100.00;94951.88;5018507;28;19937;-46
2023/08/30 02:33:38;;;;;;;;;;;15.20;70.90;;;10.64;100.00;94954.59;5013313;28;20310;-51
2023/08/30 02:36:05;;;;;;;;;;;15.20;70.80;;;10.69;100.00;94951.09;5012417;28;19909;-47
2023/08/30 02:38:30;;;;;;;;;;;15.20;70.80;;;10.69;100.00;94954.56;5013200;28;20474;-48
2023/08/30 02:40:56;;;;;;;;;;;15.20;70.80;;;10.69;100.00;94959.88;5012701;28;19921;-49
2023/08/30 02:43:22;;;;;;;;;;;15.20;70.80;;;10.68;100.00;94963.59;5013562;28;19913;-50
2023/08/30 02:45:48;;;;;;;;;;;15.30;70.90;;;10.66;100.00;94968.44;5013594;28;19909;-48
2023/08/30 02:48:15;;;;;;;;;;;15.20;70.80;;;10.68;100.00;94965.47;5017258;28;20334;-50
2023/08/30 02:50:41;;;;;;;;;;;15.20;70.70;;;10.67;100.00;94959.34;5013256;28;20367;-48
2023/08/30 02:53:08;;;;;;;;;;;15.20;70.70;;;10.65;100.00;94956.16;5012370;28;20004;-48
2023/08/30 02:55:35;;;;;;;;;;;15.20;70.70;;;10.60;100.00;94957.00;5013176;28;20028;-47
2023/08/30 02:58:01;;;;;;;;;;;15.30;70.70;;;10.59;100.00;94959.94;5012961;28;20288;-48
2023/08/30 03:00:27;;;;;;;;;;;15.20;70.60;;;10.55;100.00;94965.03;5012173;28;19913;-48
2023/08/30 03:02:52;;;;;;;;;;;15.30;70.60;;;10.55;100.00;94958.91;5012582;28;19920;-48
2023/08/30 03:05:18;;;;;;;;;;;15.20;70.50;;;10.51;100.00;94961.34;5011965;28;20387;-48
2023/08/30 03:07:44;;;;;;;;;;;15.20;70.50;;;10.50;100.00;94959.78;5012831;28;20046;-47
2023/08/30 03:10:11;;;;;;;;;;;15.10;70.40;;;10.46;100.00;94958.72;5013107;28;20376;-47
2023/08/30 03:12:37;;;;;;;;;;;15.10;70.40;;;10.45;100.00;94949.16;5012324;28;19909;-49
2023/08/30 03:15:04;;;;;;;;;;;15.10;70.60;;;10.42;100.00;94953.16;5012811;28;19909;-48
2023/08/30 03:17:30;;;;;;;;;;;15.00;70.50;;;10.40;100.00;94952.66;5012009;28;19916;-50
2023/08/30 03:19:56;;;;;;;;;;;15.00;70.50;;;10.38;100.00;94952.13;4998229;28;20063;-49
2023/08/30 03:22:23;;;;;;;;;;;15.00;70.70;;;10.41;100.00;94948.13;5013192;28;19959;-49
2023/08/30 03:24:49;;;;;;;;;;;14.90;70.60;;;10.41;100.00;94950.78;5011438;28;19913;-48
2023/08/30 03:27:16;;;;;;;;;;;14.90;70.60;;;10.39;100.00;94951.06;5013150;28;20394;-48
2023/08/30 03:29:42;;;;;;;;;;;15.00;70.80;;;10.39;100.00;94945.72;5011542;28;19909;-50
2023/08/30 03:32:08;;;;;;;;;;;14.90;70.80;;;10.36;100.00;94940.16;5012575;28;19936;-49
2023/08/30 03:34:34;;;;;;;;;;;14.90;70.70;;;10.39;100.00;94943.06;5012117;28;19909;-47
2023/08/30 03:37:00;;;;;;;;;;;14.90;70.80;;;10.39;100.00;94942.28;5020470;28;19913;-47
2023/08/30 03:39:26;;;;;;;;;;;14.90;70.90;;;10.39;100.00;94947.59;5015264;28;19914;-49
2023/08/30 03:41:51;;;;;;;;;;;14.90;70.90;;;10.40;100.00;94941.19;5011820;28;19909;-47
2023/08/30 03:44:17;;;;;;;;;;;14.90;70.90;;;10.40;100.00;94943.84;5012476;28;20015;-51
2023/08/30 03:46:43;;;;;;;;;;;14.90;70.90;;;10.40;100.00;94941.19;5012415;28;19948;-47
2023/08/30 03:49:08;;;;;;;;;;;14.90;70.90;;;10.40;100.00;94949.19;5011598;28;19924;-49
2023/08/30 03:51:34;;;;;;;;;;;14.90;71.00;;;10.37;100.00;94947.88;5012853;28;19909;-52
2023/08/30 03:54:00;;;;;;;;;;;14.90;71.00;;;10.42;100.00;94952.38;5011082;28;19971;-52
2023/08/30 03:56:26;;;;;;;;;;;14.90;71.00;;;10.43;100.00;94953.94;5012480;28;19952;-47
2023/08/30 03:58:52;;;;;;;;;;;14.90;71.10;;;10.45;100.00;94954.47;5011010;28;20370;-47
2023/08/30 04:01:17;;;;;;;;;;;14.90;71.10;;;10.45;100.00;94959.00;5012192;28;19917;-52
2023/08/30 04:03:43;;;;;;;;;;;15.00;71.10;;;10.45;100.00;94961.66;5011319;28;19917;-48
2023/08/30 04:06:09;;;;;;;;;;;15.00;71.20;;;10.47;100.00;94959.53;5011752;28;20295;-46
2023/08/30 04:08:34;;;;;;;;;;;15.00;71.10;;;10.49;100.00;94960.03;5011760;28;20291;-48
2023/08/30 04:11:01;;;;;;;;;;;15.00;71.10;;;10.49;100.00;94966.16;5011077;28;20435;-47
2023/08/30 04:13:27;;;;;;;;;;;15.00;71.10;;;10.50;100.00;94959.78;5011969;28;19909;-50
2023/08/30 04:15:53;;;;;;;;;;;15.10;71.10;;;10.51;100.00;94957.91;5012242;28;19909;-50
2023/08/30 04:18:19;;;;;;;;;;;15.10;71.00;;;10.50;100.00;94965.09;5011189;28;19919;-50
2023/08/30 04:20:46;;;;;;;;;;;15.10;71.00;;;10.50;100.00;94956.28;5012131;28;19913;-49
2023/08/30 04:23:13;;;;;;;;;;;15.10;71.00;;;10.50;100.00;94957.09;5010992;28;20003;-49
2023/08/30 04:25:39;;;;;;;;;;;15.10;70.90;;;10.50;100.00;94957.09;5011991;28;19967;-50
2023/08/30 04:28:05;;;;;;;;;;;15.10;70.90;;;10.50;100.00;94954.44;5011682;28;20334;-48
2023/08/30 04:30:31;;;;;;;;;;;15.10;70.80;;;10.52;100.00;94948.81;5011137;28;19909;-50
2023/08/30 04:32:56;;;;;;;;;;;15.10;70.90;;;10.53;100.00;94951.22;5011228;28;19967;-47
2023/08/30 04:35:22;;;;;;;;;;;15.20;70.90;;;10.52;100.00;94946.94;5016120;28;19953;-49
2023/08/30 04:37:48;;;;;;;;;;;15.10;70.80;;;10.52;100.00;94952.28;5014697;28;20134;-48
2023/08/30 04:40:14;;;;;;;;;;;15.10;70.90;;;10.55;100.00;94954.38;5011924;28;19960;-48
2023/08/30 04:42:40;;;;;;;;;;;15.20;70.90;;;10.56;100.00;94956.00;5023225;28;19927;-51
2023/08/30 04:45:09;;;;;;;;;;;15.20;70.90;;;10.56;100.00;94956.00;5011718;28;19908;-48
2023/08/30 04:47:35;;;;;;;;;;;15.10;70.90;;;10.57;100.00;94956.78;5011072;28;19909;-48
2023/08/30 04:50:02;;;;;;;;;;;15.10;70.90;;;10.56;100.00;94958.66;5011912;28;19970;-49
2023/08/30 04:52:27;;;;;;;;;;;15.10;70.90;;;10.56;100.00;94955.16;5011855;28;19909;-47
2023/08/30 04:54:53;;;;;;;;;;;15.20;71.00;;;10.56;100.00;94956.00;5017377;28;20376;-54
2023/08/30 04:57:19;;;;;;;;;;;15.20;71.00;;;10.53;100.00;94953.88;5011788;28;19920;-54
2023/08/30 04:59:46;;;;;;;;;;;15.20;70.90;;;10.58;100.00;94958.38;5010289;28;19913;-52
2023/08/30 05:02:12;;;;;;;;;;;15.20;70.90;;;10.59;100.00;94958.09;5011591;28;20288;-51
2023/08/30 05:04:38;;;;;;;;;;;15.20;70.90;;;10.59;100.00;94955.44;5011396;28;19962;-52
2023/08/30 05:07:04;;;;;;;;;;;15.20;71.00;;;10.60;100.00;94957.00;5010431;28;20388;-50
2023/08/30 05:09:34;;;;;;;;;;;15.20;70.90;;;10.61;100.00;94955.94;5011423;28;19909;-52
2023/08/30 05:12:00;;;;;;;;;;;15.20;70.90;;;10.60;100.00;94961.56;5016074;28;19962;-50
2023/08/30 05:14:25;;;;;;;;;;;15.20;70.90;;;10.59;100.00;94957.28;5015408;28;19909;-50
2023/08/30 05:16:51;;;;;;;;;;;15.20;70.90;;;10.60;100.00;94957.00;5010634;28;20367;-53
2023/08/30 05:19:17;;;;;;;;;;;15.30;70.90;;;10.63;100.00;94953.00;5011618;28;19909;-52
2023/08/30 05:21:43;;;;;;;;;;;15.30;70.90;;;10.63;100.00;94947.69;5011516;28;19913;-51
2023/08/30 05:24:10;;;;;;;;;;;15.30;70.90;;;10.61;100.00;94944.50;5012516;28;20383;-53
2023/08/30 05:26:36;;;;;;;;;;;15.30;70.80;;;10.62;100.00;94956.72;5015087;28;20438;-53
2023/08/30 05:29:03;;;;;;;;;;;15.30;70.70;;;10.62;100.00;94943.41;5013576;28;20003;-52
2023/08/30 05:31:28;;;;;;;;;;;15.30;70.70;;;10.63;100.00;94947.69;5014995;28;19948;-55
2023/08/30 05:33:54;;;;;;;;;;;15.40;70.80;;;10.62;100.00;94946.06;5014532;28;20379;-51
2023/08/30 05:36:20;;;;;;;;;;;15.40;70.70;;;10.62;100.00;94952.22;5017245;28;19944;-53
2023/08/30 05:38:46;;;;;;;;;;;15.40;70.70;;;10.61;100.00;94950.59;5022645;28;19909;-53
2023/08/30 05:41:12;;;;;;;;;;;15.40;70.60;;;10.61;100.00;94949.81;5013852;28;19939;-51
2023/08/30 05:43:38;;;;;;;;;;;15.40;70.50;;;10.64;100.00;94946.59;5014373;28;20402;-55
2023/08/30 05:46:04;;;;;;;;;;;15.40;70.60;;;10.67;100.00;94953.25;5015048;28;19940;-52
2023/08/30 05:48:30;;;;;;;;;;;15.50;70.60;;;10.68;100.00;94958.28;5013991;28;19908;-50
2023/08/30 05:50:57;;;;;;;;;;;15.50;70.50;;;10.70;100.00;94953.47;5014565;28;19909;-53
2023/08/30 05:53:23;;;;;;;;;;;15.60;70.60;;;10.77;100.00;94955.81;4995375;28;19948;-55
2023/08/30 05:55:49;;;;;;;;;;;15.60;70.50;;;10.80;100.00;94961.34;5014527;28;19956;-54
2023/08/30 05:58:15;;;;;;;;;;;15.70;70.50;;;10.85;100.00;94963.19;5014155;28;19972;-55
2023/08/30 06:00:41;;;;;;;;;;;15.80;71.20;;;10.95;100.00;94965.75;5023983;28;19919;-54
2023/08/30 06:03:08;;;;;;;;;;;15.90;70.50;;;11.04;100.00;94957.94;5013642;28;19916;-54
2023/08/30 06:05:34;;;;;;;;;;;16.00;70.40;;;11.13;100.00;94955.47;4996768;28;19909;-53
2023/08/30 06:08:00;;;;;;;;;;;16.10;70.40;;;11.23;100.00;94958.03;5014744;28;19913;-55
2023/08/30 06:10:27;;;;;;;;;;;16.20;70.40;;;11.35;100.00;94963.75;5014473;28;19909;-53
2023/08/30 06:12:53;;;;;;;;;;;16.30;70.30;;;11.41;100.00;94964.50;4995705;28;19913;-52
2023/08/30 06:15:19;;;;;;;;;;;16.50;70.20;;;11.48;100.00;94973.72;5014241;28;19936;-54
2023/08/30 06:17:46;;;;;;;;;;;16.60;70.20;;;11.60;100.00;94970.66;5021270;28;19935;-57
2023/08/30 06:20:12;;;;;;;;;;;16.70;70.10;;;11.70;100.00;94973.19;5014887;28;19913;-55
2023/08/30 06:22:39;;;;;;;;;;;16.80;70.00;;;11.67;100.00;94972.97;5013896;28;19909;-54
2023/08/30 06:25:06;;;;;;;;;;;16.90;69.90;;;11.76;100.00;94971.25;5025647;28;19909;-51
2023/08/30 06:27:32;;;;;;;;;;;17.00;69.80;;;11.78;100.00;94971.75;5013875;28;19919;-57
2023/08/30 06:29:58;;;;;;;;;;;17.10;69.70;;;11.89;100.00;94972.47;5012706;28;20322;-55
2023/08/30 06:32:24;;;;;;;;;;;17.10;69.60;;;11.91;100.00;94968.44;5013850;28;19909;-54
2023/08/30 06:34:50;;;;;;;;;;;17.20;69.60;;;11.97;100.00;94975.28;5012763;28;20003;-55
2023/08/30 06:37:17;;;;;;;;;;;17.20;69.50;;;11.95;100.00;94973.97;5028390;28;19995;-54
2023/08/30 06:39:42;;;;;;;;;;;17.20;69.40;;;11.94;100.00;94975.03;5013918;28;19916;-52
2023/08/30 06:42:08;;;;;;;;;;;17.20;69.30;;;11.90;100.00;94969.50;5013271;28;20367;-52
2023/08/30 06:44:34;;;;;;;;;;;17.20;69.30;;;12.02;100.00;94979.75;5013825;28;20015;-55
2023/08/30 06:47:00;;;;;;;;;;;17.30;69.30;;;12.07;100.00;94971.69;5013128;28;19959;-48
2023/08/30 06:49:26;;;;;;;;;;;17.20;69.20;;;12.15;100.00;94971.03;5013653;28;19909;-54
2023/08/30 06:51:51;;;;;;;;;;;17.30;69.20;;;12.22;100.00;94962.66;5013970;28;19955;-51
2023/08/30 06:54:17;;;;;;;;;;;17.30;69.20;;;12.30;100.00;94966.56;5011896;28;20279;-52
2023/08/30 06:57:00;;;;;;;;;;;17.40;69.20;;;12.35;100.00;94969.94;5013242;28;19998;-52
2023/08/30 06:59:27;;;;;;;;;;;17.50;69.20;;;12.44;100.00;94962.88;5012718;28;20347;-55
2023/08/30 07:01:53;;;;;;;;;;;17.60;69.10;;;12.55;100.00;94963.50;5013084;28;19974;-55
2023/08/30 07:04:19;;;;;;;;;;;17.70;69.00;;;12.72;100.00;94953.06;5012713;28;19917;-51
2023/08/30 07:06:45;;;;;;;;;;;17.90;69.00;;;12.86;100.00;94958.44;5010335;28;19909;-55
2023/08/30 07:09:14;;;;;;;;;;;18.20;68.90;;;13.11;100.00;94959.06;5001099;28;19919;-55
2023/08/30 07:11:43;;;;;;;;;;;18.40;68.80;;;13.29;100.00;94960.91;5012370;28;20323;-53
2023/08/30 07:14:09;;;;;;;;;;;18.60;68.60;;;13.36;100.00;94958.63;5012909;28;20368;-53
2023/08/30 07:16:35;;;;;;;;;;;18.80;68.40;;;13.52;100.00;94959.13;5013118;28;19916;-56
2023/08/30 07:19:02;;;;;;;;;;;18.90;68.20;;;13.73;100.00;94958.72;5012092;28;19999;-54
2023/08/30 07:21:28;;;;;;;;;;;19.10;68.00;;;13.88;100.00;94956.53;5012798;28;19920;-51
2023/08/30 07:23:53;;;;;;;;;;;19.30;68.00;;;14.04;100.00;94958.84;5011490;28;19909;-55
2023/08/30 07:26:19;;;;;;;;;;;19.50;67.80;;;14.16;100.00;94959.13;5012846;28;19915;-55
2023/08/30 07:28:45;;;;;;;;;;;19.70;67.50;;;14.40;100.00;94958.06;5012437;28;19915;-51
2023/08/30 07:31:15;;;;;;;;;;;19.90;67.20;;;14.55;98.82;94957.75;5011883;28;19909;-53
2023/08/30 07:33:41;;;;;;;;;;;20.10;67.80;;;14.88;95.91;94958.25;5012253;28;19955;-54
2023/08/30 07:36:08;;;;;;;;;;;20.50;66.80;;;15.33;97.51;94960.09;5011586;28;19909;-54
2023/08/30 07:38:34;;;;;;;;;;;20.90;66.60;;;15.78;93.46;94968.00;5012537;28;19915;-54
2023/08/30 07:41:01;;;;;;;;;;;21.40;66.50;;;16.11;90.72;94973.78;5012876;28;19913;-54
2023/08/30 07:43:27;;;;;;;;;;;21.90;66.20;;;16.52;86.79;94961.78;5022389;28;20007;-51
2023/08/30 07:45:53;;;;;;;;;;;22.50;65.80;;;16.66;82.55;94960.47;5011956;28;20016;-54
2023/08/30 07:48:19;;;;;;;;;;;22.80;65.40;;;16.82;84.82;94963.50;5011665;28;20261;-50
2023/08/30 07:50:44;;;;;;;;;;;22.90;64.80;;;17.07;82.55;94961.09;5012447;28;20007;-53
2023/08/30 07:53:10;;;;;;;;;;;23.20;64.30;;;17.16;80.16;94963.75;5011479;28;20444;-55
2023/08/30 07:55:36;;;;;;;;;;;23.50;63.80;;;17.53;79.97;94967.59;5012379;28;20307;-53
2023/08/30 07:58:03;;;;;;;;;;;23.70;63.30;;;17.59;76.07;94969.00;5012529;28;19916;-53
2023/08/30 08:00:29;;;;;;;;;;;23.90;62.60;;;17.89;76.21;94977.09;5011434;28;19917;-53
2023/08/30 08:02:55;;;;;;;;;;;24.30;62.20;;;18.02;75.24;94968.00;5012358;28;20364;-55
2023/08/30 08:05:21;;;;;;;;;;;24.40;61.70;;;18.08;75.77;94966.69;5007400;28;19920;-52
2023/08/30 08:08:10;;;;;;;;;;;24.50;61.30;;;18.02;73.22;94968.81;4992957;28;20357;-52
2023/08/30 08:10:36;;;;;;;;;;;24.80;60.60;;;18.24;72.08;94967.72;4920341;28;19918;-51
2023/08/30 08:13:05;;;;;;;;;;;25.00;60.20;;;18.47;70.47;94973.56;4951663;28;20012;-51
2023/08/30 08:15:34;;;;;;;;;;;25.20;60.10;;;18.45;69.94;94970.38;4947948;28;19910;-49
2023/08/30 08:18:01;;;;;;;;;;;25.30;59.90;;;18.69;68.79;94972.44;4940304;28;19914;-52
2023/08/30 08:20:29;;;;;;;;;;;25.40;59.70;;;18.85;70.47;94974.53;4946563;29;19973;-56
2023/08/30 08:22:55;;;;;;;;;;;25.50;59.60;;;19.20;70.19;94972.28;4933304;29;19964;-55
2023/08/30 08:25:23;;;;;;;;;;;25.90;59.40;;;19.55;71.99;94980.00;4949460;28;19910;-55
2023/08/30 08:27:48;;;;;;;;;;;26.20;59.20;;;19.73;68.69;94975.22;4951925;29;20389;-49
2023/08/30 08:30:14;;;;;;;;;;;26.60;59.70;;;19.92;65.28;94977.34;4947079;29;19918;-54
2023/08/30 08:32:40;;;;;;;;;;;26.90;58.80;;;20.03;63.38;94973.88;4951868;29;20584;-55
2023/08/30 08:35:06;;;;;;;;;;;27.20;58.40;;;20.13;62.06;94975.31;4950828;29;20389;-56
2023/08/30 08:37:32;;;;;;;;;;;27.50;57.90;;;19.97;63.22;94969.81;4952047;29;19957;-55
2023/08/30 08:39:58;;;;;;;;;;;27.40;57.50;;;19.72;62.08;94974.44;4944815;29;20423;-52
2023/08/30 08:42:24;;;;;;;;;;;27.30;57.30;;;19.89;63.03;94973.41;4997109;28;19935;-51
2023/08/30 08:44:56;;;;;;;;;;;27.20;57.20;;;20.01;63.54;94986.13;5009288;28;19987;-54
2023/08/30 08:47:24;;;;;;;;;;;27.00;56.90;;;20.14;61.10;94976.09;4989920;28;19909;-55
2023/08/30 08:49:50;;;;;;;;;;;27.00;57.00;;;20.34;61.92;94970.56;5010956;28;19909;-47
2023/08/30 08:52:17;;;;;;;;;;;27.20;56.80;;;20.32;60.49;94978.22;5009495;28;19909;-53
2023/08/30 08:54:44;;;;;;;;;;;27.40;56.60;;;20.13;59.56;94974.53;5012868;28;19920;-54
2023/08/30 08:57:10;;;;;;;;;;;27.50;56.00;;;20.24;62.19;94972.91;5011680;28;19916;-51
2023/08/30 08:59:36;;;;;;;;;;;27.40;56.40;;;20.11;59.95;94972.94;4998191;28;19916;-55
2023/08/30 09:02:03;;;;;;;;;;;27.30;55.50;;;19.79;61.94;94973.88;5014740;28;19976;-52
2023/08/30 09:04:32;;;;;;;;;;;27.00;55.40;;;19.51;61.80;94971.00;5008435;28;19916;-51
2023/08/30 09:07:00;;;;;;;;;;;26.80;55.30;;;19.81;61.16;94971.63;5014679;28;19920;-53
2023/08/30 09:09:26;;;;;;;;;;;27.00;55.20;;;20.01;60.79;94978.03;5013823;28;19909;-51
2023/08/30 09:11:52;;;;;;;;;;;27.20;55.10;;;19.99;61.04;94977.56;5014013;28;20467;-51
2023/08/30 09:14:19;;;;;;;;;;;27.50;55.00;;;20.39;61.75;94971.44;5014498;28;19951;-53
2023/08/30 09:17:00;;;;;;;;;;;27.80;54.90;;;20.19;60.72;94973.97;5014551;28;20330;-52
2023/08/30 09:19:27;;;;;;;;;;;28.00;54.70;;;20.52;58.84;94971.09;5013407;28;19921;-54
2023/08/30 09:21:57;;;;;;;;;;;28.20;54.30;;;20.89;59.55;94972.88;5011526;28;19949;-43
2023/08/30 09:24:24;;;;;;;;;;;28.50;53.90;;;21.07;57.01;94974.16;5013082;28;19912;-47
2023/08/30 09:26:53;;;;;;;;;;;28.70;53.50;;;21.29;58.49;94975.50;5014049;28;19963;-44
2023/08/30 09:29:23;;;;;;;;;;;29.00;53.40;;;21.37;56.63;94966.47;5013281;28;19924;-45
2023/08/30 09:31:53;;;;;;;;;;;29.20;53.00;;;21.58;57.13;94970.84;5012844;28;19920;-44
2023/08/30 09:34:25;;;;;;;;;;;29.50;52.50;;;21.99;55.76;94974.16;5012927;28;20383;-44
2023/08/30 09:36:53;;;;;;;;;;;29.90;53.00;;;22.22;54.21;94974.31;5012024;28;19916;-44
2023/08/30 09:39:18;;;;;;;;;;;30.10;51.90;;;22.18;54.34;94960.66;5013826;28;19996;-45
2023/08/30 09:41:47;;;;;;;;;;;30.30;51.40;;;22.40;55.26;94978.19;5012289;28;20011;-45
2023/08/30 09:44:24;;;;;;;;;;;30.30;51.30;;;22.45;53.63;94971.72;5013747;28;19909;-44
2023/08/30 09:46:53;;;;;;;;;;;30.50;51.10;;;22.41;49.83;94963.50;5012043;28;19908;-56
2023/08/30 09:49:25;;;;;;;;;;;30.50;50.50;;;22.57;53.99;94966.94;5011411;28;19940;-44
2023/08/30 09:51:53;;;;;;;;;;;30.60;50.50;;;22.35;53.77;94965.72;5013194;28;19941;-47
2023/08/30 09:54:28;;;;;;;;;;;30.50;50.40;;;22.14;53.25;94976.06;5014282;28;20380;-44
2023/08/30 09:56:57;;;;;;;;;;;30.30;50.20;;;22.30;53.31;94965.97;5002933;28;19960;-45
2023/08/30 09:59:23;;;;;;;;;;;30.20;50.10;;;22.42;53.47;94962.38;5013985;28;20280;-46
2023/08/30 10:01:52;;;;;;;;;;;30.40;50.10;;;22.55;54.02;94957.59;5012600;28;19943;-44
2023/08/30 10:04:20;;;;;;;;;;;30.50;49.60;;;22.21;53.22;94951.81;5008357;28;19948;-44
2023/08/30 10:06:47;;;;;;;;;;;30.40;49.30;;;22.00;53.25;94954.03;4996557;28;19928;-57
2023/08/30 10:09:15;;;;;;;;;;;30.00;49.30;;;21.78;54.06;94953.53;5012172;28;19913;-45
2023/08/30 10:11:41;;;;;;;;;;;29.70;49.40;;;21.69;53.30;94951.00;5011162;28;19909;-44
2023/08/30 10:14:07;;;;;;;;;;;29.40;49.30;;;21.43;56.82;94948.03;5013223;28;19915;-44
2023/08/30 10:16:43;;;;;;;;;;;29.10;49.20;;;21.18;54.90;94942.72;5012809;28;19909;-45
2023/08/30 10:19:16;;;;;;;;;;;28.90;49.40;;;20.91;56.04;94949.75;5012456;28;20382;-44
2023/08/30 10:21:44;;;;;;;;;;;28.70;49.00;;;21.02;54.57;94937.28;5012507;28;19913;-48
2023/08/30 10:24:16;;;;;;;;;;;28.60;49.20;;;21.16;54.50;94942.31;5012883;28;20351;-45
2023/08/30 10:26:45;;;;;;;;;;;28.70;49.30;;;21.41;53.55;94932.13;5014072;28;19916;-46
2023/08/30 10:29:16;;;;;;;;;;;29.00;49.00;;;21.65;53.30;94927.66;5011509;28;19913;-49
2023/08/30 10:31:41;;;;;;;;;;;29.50;48.80;;;22.06;55.05;94931.72;4996855;28;19947;-45
2023/08/30 10:34:18;;;;;;;;;;;30.00;48.30;;;22.46;54.43;94927.94;5014368;28;19952;-47
2023/08/30 10:36:44;;;;;;;;;;;30.50;48.20;;;22.58;52.69;94927.81;5013135;28;20287;-45
2023/08/30 10:39:15;;;;;;;;;;;30.70;48.00;;;22.54;53.77;94932.38;5013979;28;19909;-45
2023/08/30 10:41:57;;;;;;;;;;;30.80;48.00;;;22.67;51.69;94926.81;5013020;28;20331;-49
2023/08/30 10:44:23;;;;;;;;;;;30.70;47.80;;;22.67;51.22;94927.59;4995945;28;19916;-47
2023/08/30 10:46:55;;;;;;;;;;;30.60;47.60;;;22.42;50.10;94923.59;5013182;28;26732;-53
2023/08/30 10:49:23;;;;;;;;;;;30.50;47.60;;;22.48;48.84;94922.19;5012736;28;20319;-45
2023/08/30 10:52:01;;;;;;;;;;;30.50;47.60;;;22.51;48.66;94919.53;5013501;28;19920;-45
2023/08/30 10:54:40;;;;;;;;;;;30.40;47.30;;;22.55;47.45;94922.31;5020390;28;20027;-44
2023/08/30 10:57:14;;;;;;;;;;;30.30;46.90;;;22.46;50.18;94919.81;5013747;28;19919;-46
2023/08/30 10:59:40;;;;;;;;;;;30.20;46.60;;;22.48;50.21;94914.03;5018577;28;19909;-46
2023/08/30 11:02:07;;;;;;;;;;;30.30;46.70;;;22.66;49.47;94912.47;5001758;28;19913;-45
2023/08/30 11:04:33;;;;;;;;;;;30.60;46.60;;;22.85;52.75;94915.16;5013357;28;20268;-44
2023/08/30 11:06:59;;;;;;;;;;;30.60;46.60;;;22.64;48.64;94909.31;5014764;28;19920;-45
2023/08/30 11:09:25;;;;;;;;;;;30.50;46.50;;;22.92;50.47;94905.59;4996235;28;19909;-44
2023/08/30 11:11:51;;;;;;;;;;;30.70;46.40;;;22.88;45.03;94900.09;5012776;28;19909;-45
2023/08/30 11:14:18;;;;;;;;;;;31.00;45.80;;;23.24;46.82;94901.53;5013302;28;19909;-45